createdAt,value
2022-09-22T00:01:22.585Z,6.00
2022-09-22T00:06:28.694Z,6.20
2022-09-22T00:11:36.624Z,6.20
2022-09-22T00:16:47.138Z,5.50
2022-09-22T00:21:51.382Z,6.20
2022-09-22T00:26:57.735Z,5.70
2022-09-22T00:32:06.477Z,5.20
2022-09-22T00:37:11.915Z,5.40
2022-09-22T00:42:15.031Z,6.30
2022-09-22T00:47:35.473Z,6.50
2022-09-22T00:52:50.708Z,6.10
2022-09-22T00:58:00.589Z,5.30
2022-09-22T01:03:07.717Z,4.40
2022-09-22T01:08:13.248Z,5.70
2022-09-22T01:13:25.066Z,5.20
2022-09-22T01:18:43.685Z,5.90
2022-09-22T01:23:54.131Z,5.20
2022-09-22T01:29:50.926Z,5.70
2022-09-22T01:35:20.112Z,5.50
2022-09-22T01:40:30.441Z,6.90
2022-09-22T01:45:36.230Z,7.00
2022-09-22T01:50:47.977Z,4.60
2022-09-22T01:55:58.458Z,6.10
2022-09-22T02:01:14.592Z,6.00
2022-09-22T02:06:31.309Z,6.10
2022-09-22T02:11:34.648Z,4.60
2022-09-22T02:16:37.841Z,5.30
2022-09-22T02:21:45.221Z,5.30
2022-09-22T02:26:48.329Z,4.80
2022-09-22T02:32:00.592Z,6.30
2022-09-22T02:37:37.253Z,5.60
2022-09-22T02:42:44.518Z,6.60
2022-09-22T02:48:00.032Z,6.60
2022-09-22T02:53:10.588Z,6.80
2022-09-22T02:58:17.287Z,6.30
2022-09-22T03:03:26.436Z,7.50
2022-09-22T03:08:32.941Z,7.30
2022-09-22T03:13:36.067Z,8.10
2022-09-22T03:18:39.348Z,6.60
2022-09-22T03:23:43.536Z,5.50
2022-09-22T03:28:46.754Z,5.20
2022-09-22T03:33:52.691Z,6.00
2022-09-22T03:38:56.393Z,8.90
2022-09-22T03:44:00.744Z,8.40
2022-09-22T03:49:04.010Z,8.00
2022-09-22T03:54:07.238Z,7.80
2022-09-22T03:59:12.012Z,8.60
2022-09-22T04:04:16.390Z,8.30
2022-09-22T04:09:19.694Z,6.70
2022-09-22T04:14:22.908Z,7.80
2022-09-22T04:19:26.465Z,7.00
2022-09-22T04:24:29.690Z,8.30
2022-09-22T04:29:33.032Z,8.50
2022-09-22T04:34:36.220Z,11.10
2022-09-22T04:39:39.752Z,10.20
2022-09-22T04:44:42.910Z,8.80
2022-09-22T04:49:46.203Z,9.90
2022-09-22T04:54:49.341Z,12.80
2022-09-22T04:59:52.530Z,12.10
2022-09-22T05:04:55.953Z,10.20
2022-09-22T05:09:59.793Z,11.60
2022-09-22T05:15:03.011Z,9.10
2022-09-22T05:20:07.433Z,9.90
2022-09-22T05:25:13.220Z,10.60
2022-09-22T05:30:18.387Z,11.30
2022-09-22T05:35:24.639Z,9.80
2022-09-22T05:40:27.909Z,9.50
2022-09-22T05:45:31.236Z,8.40
2022-09-22T05:50:34.493Z,9.50
2022-09-22T05:55:39.226Z,10.00
2022-09-22T06:00:42.732Z,8.80
2022-09-22T06:05:46.102Z,9.80
2022-09-22T06:10:51.838Z,8.00
2022-09-22T06:15:55.033Z,8.50
2022-09-22T06:20:58.663Z,7.70
2022-09-22T06:26:01.935Z,6.70
2022-09-22T06:31:05.606Z,6.50
2022-09-22T06:36:10.561Z,7.70
2022-09-22T06:41:14.072Z,6.60
2022-09-22T06:46:18.986Z,6.20
2022-09-22T06:51:22.331Z,6.80
2022-09-22T06:56:26.896Z,6.10
2022-09-22T07:01:31.658Z,5.20
2022-09-22T07:06:37.383Z,6.30
2022-09-22T07:11:40.990Z,5.10
2022-09-22T07:16:45.820Z,5.80
2022-09-22T07:21:49.243Z,4.60
2022-09-22T07:26:52.496Z,4.80
2022-09-22T07:32:00.298Z,5.10
2022-09-22T07:37:04.313Z,4.40
2022-09-22T07:42:07.628Z,5.40
2022-09-22T07:47:10.759Z,4.90
2022-09-22T07:52:14.330Z,4.30
2022-09-22T07:57:17.668Z,4.10
2022-09-22T08:02:28.057Z,4.20
2022-09-22T08:07:36.545Z,3.90
2022-09-22T08:12:39.798Z,3.80
2022-09-22T08:17:46.386Z,4.30
2022-09-22T08:22:54.179Z,4.10
2022-09-22T08:27:57.303Z,3.90
2022-09-22T08:33:01.838Z,3.70
2022-09-22T08:38:08.214Z,3.80
2022-09-22T08:43:16.093Z,3.60
2022-09-22T08:48:46.398Z,4.30
2022-09-22T08:53:51.959Z,4.10
2022-09-22T08:59:09.164Z,4.40
2022-09-22T09:04:35.229Z,4.20
2022-09-22T09:09:52.794Z,3.40
2022-09-22T09:15:05.849Z,2.60
2022-09-22T09:20:37.418Z,3.80
2022-09-22T09:25:42.915Z,3.00
2022-09-22T09:30:52.159Z,2.90
2022-09-22T09:35:56.238Z,2.70
2022-09-22T09:41:12.166Z,3.30
2022-09-22T09:46:40.981Z,2.80
2022-09-22T09:51:56.627Z,2.20
2022-09-22T09:57:10.094Z,2.40
2022-09-22T10:02:21.093Z,3.90
2022-09-22T10:07:28.645Z,2.70
2022-09-22T10:12:33.955Z,3.00
2022-09-22T10:17:43.069Z,2.70
2022-09-22T10:22:46.621Z,3.30
2022-09-22T10:28:16.035Z,3.20
2022-09-22T10:33:23.146Z,3.30
2022-09-22T10:38:27.413Z,2.90
2022-09-22T10:44:03.087Z,2.80
2022-09-22T10:49:40.132Z,5.50
2022-09-22T10:54:55.740Z,3.20
2022-09-22T11:00:14.615Z,3.30
2022-09-22T11:06:13.825Z,3.10
2022-09-22T11:12:08.664Z,2.50
2022-09-22T11:17:17.835Z,3.00
2022-09-22T11:22:20.915Z,3.40
2022-09-22T11:27:53.205Z,2.10
2022-09-22T11:33:08.795Z,2.40
2022-09-22T11:38:50.477Z,3.40
2022-09-22T11:44:15.110Z,4.10
2022-09-22T11:49:57.241Z,2.70
2022-09-22T11:55:09.729Z,2.10
2022-09-22T12:00:17.614Z,1.70
2022-09-22T12:05:28.881Z,1.60
2022-09-22T12:10:41.174Z,2.90
2022-09-22T12:16:11.791Z,2.50
2022-09-22T12:21:31.033Z,1.60
2022-09-22T12:26:37.262Z,1.70
2022-09-22T12:31:44.649Z,1.80
2022-09-22T12:36:51.646Z,3.70
2022-09-22T12:42:07.286Z,2.40
2022-09-22T12:47:39.701Z,2.30
2022-09-22T12:52:42.877Z,1.30
2022-09-22T12:57:49.209Z,3.10
2022-09-22T13:02:52.375Z,4.00
2022-09-22T13:07:58.896Z,3.20
2022-09-22T13:13:12.465Z,4.90
2022-09-22T13:18:39.053Z,4.50
2022-09-22T13:23:54.282Z,4.10
2022-09-22T13:29:17.733Z,4.30
2022-09-22T13:34:38.299Z,6.40
2022-09-22T13:39:47.354Z,5.70
2022-09-22T13:45:19.802Z,3.00
2022-09-22T13:50:23.609Z,4.10
2022-09-22T13:55:38.717Z,3.80
2022-09-22T14:01:12.245Z,14.80
2022-09-22T14:06:16.675Z,6.50
2022-09-22T14:11:24.648Z,6.50
2022-09-22T14:16:57.035Z,4.70
2022-09-22T14:22:15.865Z,5.00
2022-09-22T14:27:38.504Z,3.70
2022-09-22T14:32:46.715Z,6.60
2022-09-22T14:37:52.190Z,4.30
2022-09-22T14:43:10.647Z,5.10
2022-09-22T14:48:23.572Z,5.30
2022-09-22T14:53:32.946Z,5.90
2022-09-22T14:58:42.070Z,7.20
2022-09-22T15:03:56.382Z,7.20
2022-09-22T15:09:05.017Z,7.30
2022-09-22T15:14:31.604Z,5.00
2022-09-22T15:19:36.211Z,7.90
2022-09-22T15:24:39.558Z,7.90
2022-09-22T15:29:43.617Z,4.90
2022-09-22T15:34:46.915Z,4.60
2022-09-22T15:39:50.260Z,3.70
2022-09-22T15:44:57.205Z,4.20
2022-09-22T15:50:01.687Z,3.40
2022-09-22T15:55:06.250Z,4.90
2022-09-22T16:00:14.734Z,5.00
2022-09-22T16:05:18.766Z,6.30
2022-09-22T16:10:26.316Z,5.00
2022-09-22T16:15:31.367Z,7.70
2022-09-22T16:20:37.798Z,8.40
2022-09-22T16:25:42.460Z,6.80
2022-09-22T16:30:47.959Z,5.70
2022-09-22T16:35:51.166Z,5.80
2022-09-22T16:41:08.362Z,5.10
2022-09-22T16:46:28.703Z,5.70
2022-09-22T16:51:35.785Z,6.40
2022-09-22T16:56:40.567Z,7.20
2022-09-22T17:01:44.976Z,13.60
2022-09-22T17:06:50.443Z,7.70
2022-09-22T17:11:53.990Z,11.70
2022-09-22T17:16:58.742Z,10.40
2022-09-22T17:22:03.012Z,11.20
2022-09-22T17:27:06.613Z,8.60
2022-09-22T17:32:09.965Z,6.20
2022-09-22T17:37:15.957Z,6.60
2022-09-22T17:42:21.757Z,8.10
2022-09-22T17:47:43.423Z,6.10
2022-09-22T17:53:05.460Z,5.50
2022-09-22T17:58:10.315Z,5.60
2022-09-22T18:03:13.874Z,7.00
2022-09-22T18:08:17.509Z,5.10
2022-09-22T18:13:20.698Z,7.20
2022-09-22T18:18:24.739Z,8.80
2022-09-22T18:23:29.294Z,5.60
2022-09-22T18:28:34.358Z,5.80
2022-09-22T18:33:37.653Z,6.60
2022-09-22T18:38:42.770Z,6.30
2022-09-22T18:43:46.082Z,6.70
2022-09-22T18:48:57.762Z,7.50
2022-09-22T18:54:11.939Z,9.00
2022-09-22T18:59:25.416Z,10.20
2022-09-22T19:04:29.084Z,9.00
2022-09-22T19:09:33.734Z,14.70
2022-09-22T19:14:39.395Z,19.50
2022-09-22T19:19:46.059Z,20.40
2022-09-22T19:24:51.686Z,17.90
2022-09-22T19:29:55.085Z,19.20
2022-09-22T19:34:58.344Z,17.20
2022-09-22T19:40:02.750Z,15.30
2022-09-22T19:45:06.823Z,14.40
2022-09-22T19:50:10.224Z,14.00
2022-09-22T19:55:13.419Z,16.50
2022-09-22T20:00:26.218Z,16.90
2022-09-22T20:05:35.035Z,15.50
2022-09-22T20:10:41.450Z,20.20
2022-09-22T20:15:46.569Z,21.10
2022-09-22T20:20:51.627Z,20.00
2022-09-22T20:25:54.925Z,19.90
2022-09-22T20:30:58.365Z,21.60
2022-09-22T20:36:01.802Z,24.20
2022-09-22T20:41:34.129Z,19.90
2022-09-22T20:46:37.604Z,22.30
2022-09-22T20:51:45.383Z,18.00
2022-09-22T20:56:52.002Z,16.40
2022-09-22T21:01:59.952Z,18.70
2022-09-22T21:07:04.153Z,19.60
2022-09-22T21:12:08.926Z,15.80
2022-09-22T21:17:13.985Z,20.00
2022-09-22T21:22:18.137Z,17.20
2022-09-22T21:27:21.519Z,18.80
2022-09-22T21:32:24.737Z,19.30
2022-09-22T21:37:28.418Z,20.40
2022-09-22T21:42:31.707Z,19.40
2022-09-22T21:47:34.852Z,21.10
2022-09-22T21:52:44.586Z,18.50
2022-09-22T21:57:48.485Z,16.50
2022-09-22T22:03:10.159Z,19.30
2022-09-22T22:08:13.980Z,15.80
2022-09-22T22:13:22.285Z,17.70
2022-09-22T22:18:25.751Z,13.40
2022-09-22T22:23:34.073Z,15.90
2022-09-22T22:28:37.155Z,14.10
2022-09-22T22:33:42.339Z,14.00
2022-09-22T22:38:46.109Z,15.30
2022-09-22T22:43:49.494Z,15.40
2022-09-22T22:48:52.637Z,14.60
2022-09-22T22:53:58.453Z,11.60
2022-09-22T22:59:01.592Z,14.10
2022-09-22T23:04:07.781Z,11.80
2022-09-22T23:09:15.053Z,12.00
2022-09-22T23:14:22.442Z,12.60
2022-09-22T23:19:25.667Z,10.60
2022-09-22T23:24:28.931Z,11.40
2022-09-22T23:29:36.674Z,12.30
2022-09-22T23:34:39.857Z,13.60
2022-09-22T23:39:44.589Z,11.90
2022-09-22T23:44:48.284Z,12.50
2022-09-22T23:49:57.525Z,12.10
2022-09-22T23:55:01.125Z,11.50
